Time;durP1;ratioP1;P1;durP2;ratioP2;P2;SDS_P1;SDS_P2;PMS_P1;PMS_P2;Temp;Humidity;BMP_temperature;BMP_pressure;BME280_temperature;BME280_humidity;BME280_pressure;Samples;Min_cycle;Max_cycle;Signal;HPM_P1;HPM_P2
2023/02/26 10:11:56;;;;;;;10.90;10.30;;;1.30;99.90;;;;;;5105622;27;20526;-74
2023/02/26 10:14:27;;;;;;;10.77;10.27;;;2.00;99.90;;;;;;5085870;28;20457;-75
2023/02/26 10:16:59;;;;;;;11.60;10.87;;;2.00;99.90;;;;;;5085320;28;20511;-75
2023/02/26 10:19:30;;;;;;;11.07;10.60;;;2.10;99.90;;;;;;5085370;28;20449;-74
2023/02/26 10:22:01;;;;;;;9.90;9.50;;;2.00;99.90;;;;;;5084910;28;20442;-75
2023/02/26 10:24:37;;;;;;;11.00;10.53;;;2.00;99.90;;;;;;5084236;28;20537;-74
2023/02/26 10:27:10;;;;;;;10.33;9.87;;;1.90;99.90;;;;;;5084478;28;20448;-74
2023/02/26 10:29:42;;;;;;;11.30;10.80;;;1.90;99.90;;;;;;5084531;28;20486;-74
2023/02/26 10:32:21;;;;;;;10.47;10.07;;;1.90;99.90;;;;;;5084294;28;20489;-74
2023/02/26 10:34:55;;;;;;;11.13;10.23;;;1.90;99.90;;;;;;5084301;28;20508;-73
2023/02/26 10:37:29;;;;;;;12.40;11.70;;;1.90;99.90;;;;;;5084479;28;20539;-73
2023/02/26 10:40:05;;;;;;;10.43;9.60;;;1.90;99.90;;;;;;5083874;28;20870;-74
2023/02/26 10:42:39;;;;;;;9.83;9.40;;;1.80;99.90;;;;;;5084237;28;20549;-74
2023/02/26 10:45:23;;;;;;;10.13;9.73;;;1.80;99.90;;;;;;5084235;28;20454;-74
2023/02/26 10:47:58;;;;;;;10.53;9.93;;;2.00;99.90;;;;;;5083887;28;20458;-73
2023/02/26 10:50:26;;;;;;;9.80;9.20;;;2.00;99.90;;;;;;5084201;28;20989;-74
2023/02/26 10:52:54;;;;;;;10.20;9.70;;;2.10;99.90;;;;;;5084231;28;20454;-74
2023/02/26 10:55:37;;;;;;;9.80;9.17;;;2.20;99.90;;;;;;5083855;28;20469;-73
2023/02/26 10:58:12;;;;;;;10.33;9.80;;;2.30;99.90;;;;;;5083993;28;20957;-74
2023/02/26 11:00:40;;;;;;;11.37;10.77;;;2.50;99.90;;;;;;5083697;28;20507;-74
2023/02/26 11:03:08;;;;;;;9.30;8.90;;;2.60;99.90;;;;;;5083928;28;20451;-74
2023/02/26 11:05:35;;;;;;;10.30;9.83;;;2.70;99.90;;;;;;5084481;28;20450;-74
2023/02/26 11:08:05;;;;;;;10.47;10.00;;;2.70;99.90;;;;;;5068106;28;20501;-74
2023/02/26 11:11:00;;;;;;;11.37;10.87;;;2.70;99.90;;;;;;5062993;28;20497;-75
2023/02/26 11:13:30;;;;;;;10.40;10.00;;;2.70;99.90;;;;;;5049086;28;20447;-75
2023/02/26 11:16:01;;;;;;;12.73;10.00;;;2.80;99.90;;;;;;5049800;28;20452;-75
2023/02/26 11:18:39;;;;;;;10.47;10.03;;;2.80;99.90;;;;;;5050783;28;21190;-75
2023/02/26 11:21:08;;;;;;;10.20;9.80;;;2.80;99.90;;;;;;5051151;28;20974;-74
2023/02/26 11:23:35;;;;;;;11.70;11.30;;;2.90;99.90;;;;;;5051002;28;20452;-75
2023/02/26 11:26:07;;;;;;;10.40;10.00;;;3.00;99.90;;;;;;5050701;28;20459;-74
2023/02/26 11:28:42;;;;;;;10.30;9.83;;;3.00;99.90;;;;;;5050791;28;20452;-74
2023/02/26 11:31:11;;;;;;;10.63;10.13;;;3.00;99.90;;;;;;5050768;28;20518;-74
2023/02/26 11:33:39;;;;;;;9.57;9.17;;;2.90;99.90;;;;;;5050737;28;21009;-74
2023/02/26 11:36:11;;;;;;;11.50;10.90;;;2.90;99.90;;;;;;5050779;28;20490;-73
2023/02/26 11:38:38;;;;;;;9.90;9.50;;;2.90;99.90;;;;;;5050374;28;20506;-73
2023/02/26 11:41:06;;;;;;;9.33;9.03;;;2.70;99.90;;;;;;5050386;28;20448;-72
2023/02/26 11:43:41;;;;;;;9.57;9.27;;;2.70;99.90;;;;;;5050294;28;20444;-73
2023/02/26 11:46:10;;;;;;;10.43;10.00;;;3.00;99.90;;;;;;5050270;28;20487;-75
2023/02/26 11:48:41;;;;;;;10.50;10.00;;;3.20;99.90;;;;;;5050479;28;20452;-74
2023/02/26 11:51:12;;;;;;;10.40;10.00;;;3.10;99.90;;;;;;5050374;28;20575;-74
2023/02/26 11:53:43;;;;;;;10.70;10.30;;;3.10;99.90;;;;;;5050089;28;20510;-74
2023/02/26 11:56:12;;;;;;;9.90;9.50;;;3.00;99.90;;;;;;5049848;28;20864;-74
2023/02/26 11:58:44;;;;;;;9.63;9.33;;;3.20;99.90;;;;;;5050042;28;20684;-74
2023/02/26 12:01:15;;;;;;;10.60;10.10;;;3.20;99.90;;;;;;5049770;28;20967;-74
2023/02/26 12:03:49;;;;;;;10.10;9.60;;;3.20;99.90;;;;;;5049806;28;20460;-74
2023/02/26 12:06:18;;;;;;;10.07;9.57;;;3.10;99.90;;;;;;5050071;28;20452;-73
2023/02/26 12:08:45;;;;;;;9.77;9.40;;;3.10;99.90;;;;;;5049689;28;20867;-74
2023/02/26 12:11:37;;;;;;;8.13;7.73;;;3.00;99.90;;;;;;5049477;28;20492;-74
2023/02/26 12:14:40;;;;;;;9.40;9.00;;;3.00;99.90;;;;;;5049911;28;20448;-74
2023/02/26 12:17:21;;;;;;;9.37;8.77;;;3.30;99.90;;;;;;5050195;28;20525;-74
2023/02/26 12:19:55;;;;;;;9.47;9.17;;;3.30;99.90;;;;;;5049922;28;20452;-74
2023/02/26 12:22:34;;;;;;;10.20;9.60;;;3.50;99.90;;;;;;5049381;28;20456;-74
2023/02/26 12:25:26;;;;;;;10.87;10.37;;;3.20;99.90;;;;;;5049331;28;20463;-73
2023/02/26 12:28:16;;;;;;;10.50;10.10;;;3.40;99.90;;;;;;5049636;28;20512;-74
2023/02/26 12:30:58;;;;;;;8.80;8.50;;;3.20;99.90;;;;;;5049384;28;20490;-73
2023/02/26 12:33:38;;;;;;;9.57;9.27;;;3.00;99.90;;;;;;5049268;28;20459;-73
2023/02/26 12:36:26;;;;;;;9.60;9.30;;;2.80;99.90;;;;;;5049643;28;20456;-74
2023/02/26 12:39:15;;;;;;;9.43;8.93;;;2.80;99.90;;;;;;5049494;28;20459;-73
2023/02/26 12:41:57;;;;;;;7.93;7.63;;;2.90;99.90;;;;;;5049065;28;20452;-73
2023/02/26 12:44:41;;;;;;;8.83;8.53;;;3.10;99.90;;;;;;5049302;28;20483;-73
2023/02/26 12:47:33;;;;;;;9.10;8.70;;;3.20;99.90;;;;;;5049539;28;20444;-74
2023/02/26 12:50:19;;;;;;;8.30;8.00;;;3.30;99.90;;;;;;5049079;28;20547;-75
2023/02/26 12:53:09;;;;;;;8.90;8.40;;;3.50;99.90;;;;;;5049033;28;20535;-75
2023/02/26 12:55:45;;;;;;;10.07;9.67;;;4.00;99.90;;;;;;5049339;28;20465;-74
2023/02/26 12:58:36;;;;;;;9.60;9.20;;;3.90;99.90;;;;;;5048787;28;20458;-75
2023/02/26 13:01:32;;;;;;;9.43;9.03;;;4.20;99.90;;;;;;5048659;28;20452;-74
2023/02/26 13:04:19;;;;;;;9.00;8.70;;;3.90;99.90;;;;;;5048756;28;20458;-74
2023/02/26 13:06:58;;;;;;;8.73;8.40;;;3.70;99.90;;;;;;5048714;28;20487;-74
2023/02/26 13:09:33;;;;;;;9.07;8.77;;;3.70;99.90;;;;;;5048588;28;20456;-75
2023/02/26 13:12:11;;;;;;;8.90;8.50;;;3.80;99.90;;;;;;5048691;28;20498;-75
2023/02/26 13:14:50;;;;;;;8.50;8.20;;;3.80;99.90;;;;;;5048818;28;20448;-74
2023/02/26 13:17:26;;;;;;;8.93;8.63;;;3.70;99.90;;;;;;5048586;28;20448;-75
2023/02/26 13:19:58;;;;;;;10.13;9.67;;;3.80;99.90;;;;;;5048730;28;20456;-75
2023/02/26 13:22:30;;;;;;;9.03;8.67;;;3.80;99.90;;;;;;5048788;28;20452;-75
2023/02/26 13:25:01;;;;;;;8.90;8.60;;;3.90;99.90;;;;;;5048757;28;20452;-76
2023/02/26 13:27:32;;;;;;;8.83;8.47;;;4.00;99.90;;;;;;5048412;28;21109;-75
2023/02/26 13:30:10;;;;;;;9.33;8.87;;;3.80;99.90;;;;;;5048455;28;20452;-75
2023/02/26 13:32:39;;;;;;;9.30;9.00;;;3.80;99.90;;;;;;5048497;28;20459;-75
2023/02/26 13:35:19;;;;;;;9.60;9.20;;;3.90;99.90;;;;;;5048354;28;20455;-75
2023/02/26 13:37:49;;;;;;;9.13;8.67;;;3.90;99.90;;;;;;5048053;28;20448;-74
2023/02/26 13:40:31;;;;;;;9.83;9.33;;;4.20;99.90;;;;;;5048154;28;20459;-74
2023/02/26 13:43:06;;;;;;;9.30;9.00;;;4.30;99.90;;;;;;5048353;28;20461;-75
2023/02/26 13:45:45;;;;;;;8.30;8.00;;;4.20;99.90;;;;;;5048450;28;20451;-75
2023/02/26 13:48:21;;;;;;;8.80;8.50;;;4.10;99.30;;;;;;5048481;28;20451;-75
2023/02/26 13:51:00;;;;;;;8.63;8.33;;;4.30;99.10;;;;;;5048101;28;20510;-74
2023/02/26 13:53:48;;;;;;;9.30;9.00;;;4.40;97.60;;;;;;5048256;28;20455;-74
2023/02/26 13:56:17;;;;;;;8.83;8.53;;;4.50;98.10;;;;;;5048556;28;20444;-73
2023/02/26 13:58:49;;;;;;;9.10;8.80;;;4.60;98.70;;;;;;5048387;28;20841;-74
2023/02/26 14:01:17;;;;;;;8.03;7.83;;;4.80;97.50;;;;;;5048179;28;20448;-74
2023/02/26 14:03:49;;;;;;;8.50;8.20;;;4.80;96.80;;;;;;5048612;28;20491;-76
2023/02/26 14:06:36;;;;;;;8.13;7.83;;;4.80;96.30;;;;;;5048495;28;20448;-73
2023/02/26 14:09:05;;;;;;;8.43;8.13;;;4.40;96.10;;;;;;5048372;28;20444;-74
2023/02/26 14:11:44;;;;;;;8.70;8.40;;;4.50;97.20;;;;;;5047875;28;20497;-74
2023/02/26 14:14:19;;;;;;;9.17;8.87;;;4.40;97.80;;;;;;5048429;28;20518;-75
2023/02/26 14:16:52;;;;;;;8.30;8.00;;;4.20;96.40;;;;;;5048352;28;20881;-75
2023/02/26 14:19:28;;;;;;;8.43;8.10;;;4.30;97.60;;;;;;5048262;28;20506;-75
2023/02/26 14:22:01;;;;;;;7.97;7.67;;;4.50;97.40;;;;;;5048403;28;20815;-74
2023/02/26 14:24:36;;;;;;;9.30;9.00;;;4.70;96.20;;;;;;5048898;28;20828;-74
2023/02/26 14:27:32;;;;;;;8.73;8.43;;;4.80;96.30;;;;;;5049122;28;20461;-75
2023/02/26 14:30:17;;;;;;;9.30;9.00;;;4.90;96.40;;;;;;5048945;28;20447;-73
2023/02/26 14:32:49;;;;;;;9.17;8.80;;;4.90;95.60;;;;;;5048467;28;20509;-73
2023/02/26 14:35:20;;;;;;;8.87;8.57;;;4.50;95.50;;;;;;5048112;28;20458;-73
2023/02/26 14:37:59;;;;;;;10.10;9.70;;;4.30;96.00;;;;;;5046384;28;20448;-74
2023/02/26 14:40:29;;;;;;;9.23;8.80;;;4.30;96.60;;;;;;5048242;28;20463;-74
2023/02/26 14:42:59;;;;;;;9.13;8.70;;;4.40;97.20;;;;;;5045847;28;20465;-74
2023/02/26 14:45:30;;;;;;;8.87;8.57;;;4.40;96.30;;;;;;5047802;28;20456;-75
2023/02/26 14:47:58;;;;;;;7.63;7.43;;;4.30;96.90;;;;;;5051007;28;20463;-75
2023/02/26 14:50:29;;;;;;;8.00;7.70;;;4.30;96.00;;;;;;5051653;28;20464;-74
2023/02/26 14:53:39;;;;;;;8.60;8.20;;;4.10;94.80;;;;;;5051713;28;20452;-74
2023/02/26 14:56:11;;;;;;;8.60;8.30;;;4.10;95.90;;;;;;5049982;28;21058;-74
2023/02/26 14:59:00;;;;;;;9.40;8.90;;;4.10;96.10;;;;;;5051515;28;20444;-75
2023/02/26 15:01:45;;;;;;;8.90;8.40;;;4.10;96.50;;;;;;5051428;28;20824;-74
2023/02/26 15:04:41;;;;;;;9.30;8.90;;;4.10;96.40;;;;;;5051200;28;20527;-73
2023/02/26 15:07:20;;;;;;;7.47;7.17;;;4.00;96.80;;;;;;5051182;28;20471;-73
2023/02/26 15:10:09;;;;;;;8.00;7.80;;;4.20;96.80;;;;;;5051528;28;20487;-73
2023/02/26 15:12:48;;;;;;;8.50;8.20;;;4.10;95.80;;;;;;5051215;28;20491;-73
2023/02/26 15:15:30;;;;;;;8.97;8.67;;;4.10;95.60;;;;;;5051236;28;20554;-73
2023/02/26 15:18:10;;;;;;;7.83;7.63;;;3.90;96.20;;;;;;5051510;28;20451;-73
2023/02/26 15:20:47;;;;;;;8.77;8.47;;;3.80;96.30;;;;;;5051955;28;20463;-72
2023/02/26 15:23:41;;;;;;;8.77;8.47;;;3.70;96.80;;;;;;5052190;28;20844;-73
2023/02/26 15:26:18;;;;;;;8.73;8.43;;;3.50;97.20;;;;;;5050569;28;20471;-73
2023/02/26 15:28:46;;;;;;;8.27;7.87;;;3.50;97.40;;;;;;5051944;28;20456;-73
2023/02/26 15:31:13;;;;;;;9.50;9.10;;;3.40;97.70;;;;;;5050923;28;20892;-73
2023/02/26 15:33:40;;;;;;;8.37;7.97;;;3.40;98.40;;;;;;5051365;28;20459;-73
2023/02/26 15:36:11;;;;;;;7.97;7.67;;;3.40;98.10;;;;;;5051279;28;20582;-73
2023/02/26 15:38:45;;;;;;;8.73;8.43;;;3.40;98.20;;;;;;5051287;28;20459;-72
2023/02/26 15:41:15;;;;;;;9.03;8.63;;;3.50;97.90;;;;;;5050989;28;20451;-72
2023/02/26 15:43:47;;;;;;;8.57;8.27;;;3.60;97.40;;;;;;5050756;28;20465;-73
2023/02/26 15:46:15;;;;;;;8.77;8.37;;;3.50;96.90;;;;;;5050701;28;20827;-73
2023/02/26 15:48:43;;;;;;;7.70;7.30;;;3.50;97.50;;;;;;5050775;28;20448;-73
2023/02/26 15:51:12;;;;;;;8.00;7.70;;;3.50;97.30;;;;;;5051010;28;20492;-73
2023/02/26 15:53:42;;;;;;;7.40;7.10;;;3.50;96.60;;;;;;5050593;28;20475;-74
2023/02/26 15:56:12;;;;;;;7.70;7.47;;;3.40;96.00;;;;;;5051230;28;20543;-72
2023/02/26 15:58:43;;;;;;;8.33;8.03;;;3.30;95.80;;;;;;5051478;28;20491;-73
2023/02/26 16:01:15;;;;;;;8.93;8.53;;;3.20;94.90;;;;;;5050747;28;20459;-73
2023/02/26 16:03:42;;;;;;;10.10;9.70;;;3.20;94.90;;;;;;5050301;28;20455;-73
2023/02/26 16:06:12;;;;;;;9.30;8.90;;;3.10;94.10;;;;;;5050520;28;20452;-74
2023/02/26 16:08:39;;;;;;;8.83;8.43;;;3.10;94.10;;;;;;5050697;28;20472;-73
2023/02/26 16:11:08;;;;;;;8.53;8.23;;;3.00;94.00;;;;;;5050456;28;20497;-74
2023/02/26 16:13:37;;;;;;;8.73;8.33;;;3.00;93.90;;;;;;5050586;28;20452;-73
2023/02/26 16:16:11;;;;;;;8.50;8.20;;;2.90;94.40;;;;;;5050396;28;20451;-74
2023/02/26 16:18:40;;;;;;;8.43;8.13;;;2.90;93.70;;;;;;5050649;28;20444;-74
2023/02/26 16:21:09;;;;;;;7.47;7.17;;;2.90;93.70;;;;;;5050707;28;20951;-73
2023/02/26 16:23:43;;;;;;;8.43;8.03;;;2.80;93.60;;;;;;5050371;28;20815;-75
2023/02/26 16:26:26;;;;;;;8.73;8.33;;;2.80;94.00;;;;;;5049889;28;20470;-73
2023/02/26 16:28:58;;;;;;;7.80;7.60;;;2.80;94.10;;;;;;5050032;28;20447;-73
2023/02/26 16:31:29;;;;;;;8.33;7.93;;;2.80;94.30;;;;;;5050238;28;20935;-73
2023/02/26 16:33:58;;;;;;;8.30;8.00;;;2.90;94.50;;;;;;5049916;28;20455;-73
2023/02/26 16:36:27;;;;;;;8.30;7.97;;;2.80;94.30;;;;;;5049734;28;20951;-75
2023/02/26 16:39:00;;;;;;;8.80;8.30;;;2.80;94.20;;;;;;5049885;28;20444;-73
2023/02/26 16:41:30;;;;;;;8.03;7.73;;;2.90;94.10;;;;;;5049610;28;20456;-73
2023/02/26 16:44:00;;;;;;;9.30;8.90;;;2.80;93.20;;;;;;5049568;28;20451;-75
2023/02/26 16:46:41;;;;;;;9.37;8.40;;;2.80;93.50;;;;;;5050021;28;20498;-74
2023/02/26 16:49:14;;;;;;;7.00;6.70;;;2.90;93.30;;;;;;5049891;28;20534;-72
2023/02/26 16:51:42;;;;;;;8.43;8.13;;;2.80;92.80;;;;;;5049328;28;20490;-74
2023/02/26 16:54:16;;;;;;;7.80;7.60;;;2.80;92.60;;;;;;5049698;28;20835;-73
2023/02/26 16:56:45;;;;;;;8.40;8.00;;;2.80;92.90;;;;;;5049502;28;20452;-74
2023/02/26 16:59:16;;;;;;;8.57;8.17;;;2.80;93.20;;;;;;5049757;28;20451;-73
2023/02/26 17:01:50;;;;;;;9.07;8.67;;;2.80;93.40;;;;;;5049499;28;20543;-73
2023/02/26 17:04:19;;;;;;;8.70;8.40;;;2.80;93.50;;;;;;5049501;28;20944;-72
2023/02/26 17:06:47;;;;;;;8.50;8.20;;;2.70;93.30;;;;;;5049622;28;20459;-72
2023/02/26 17:09:27;;;;;;;7.13;6.93;;;2.70;93.70;;;;;;5049139;28;20487;-73
2023/02/26 17:12:06;;;;;;;7.57;7.37;;;2.70;94.00;;;;;;5049496;28;20487;-72
2023/02/26 17:14:39;;;;;;;8.23;7.93;;;2.70;94.10;;;;;;5049466;28;20551;-73
2023/02/26 17:17:07;;;;;;;7.37;7.17;;;2.60;93.90;;;;;;5049488;28;20483;-73
2023/02/26 17:19:34;;;;;;;7.40;6.93;;;2.70;94.00;;;;;;5048599;28;20459;-73
2023/02/26 17:22:14;;;;;;;7.30;7.00;;;2.70;93.70;;;;;;5049151;28;20467;-73
2023/02/26 17:24:44;;;;;;;7.23;6.93;;;2.60;93.80;;;;;;5047656;28;20452;-73
2023/02/26 17:27:14;;;;;;;7.90;7.60;;;2.60;93.60;;;;;;5048791;28;20943;-72
2023/02/26 17:29:43;;;;;;;6.53;6.33;;;2.50;93.20;;;;;;5049022;28;20499;-73
2023/02/26 17:32:17;;;;;;;6.13;5.93;;;2.50;93.40;;;;;;5049429;28;20491;-73
2023/02/26 17:34:44;;;;;;;7.27;6.97;;;2.50;93.50;;;;;;5049148;28;20455;-73
2023/02/26 17:37:11;;;;;;;8.03;7.67;;;2.40;93.60;;;;;;5048570;28;20452;-73
2023/02/26 17:39:38;;;;;;;8.60;8.00;;;2.40;93.70;;;;;;5049035;28;20998;-73
2023/02/26 17:42:10;;;;;;;8.10;7.80;;;2.40;94.10;;;;;;5049112;28;20444;-74
2023/02/26 17:44:36;;;;;;;7.97;7.67;;;2.30;94.20;;;;;;5049014;28;20452;-74
2023/02/26 17:47:03;;;;;;;7.53;7.33;;;2.30;94.10;;;;;;5048770;28;20955;-73
2023/02/26 17:49:31;;;;;;;7.33;7.13;;;2.20;93.40;;;;;;5048919;28;20526;-73
2023/02/26 17:51:58;;;;;;;6.67;6.47;;;2.20;93.10;;;;;;5048187;28;20499;-74
2023/02/26 17:54:25;;;;;;;7.13;6.83;;;2.20;93.30;;;;;;5048804;28;20455;-73
2023/02/26 17:56:51;;;;;;;7.10;6.87;;;2.20;93.30;;;;;;5048611;28;20452;-74
